createdAt,value
2022-12-22T00:01:55.282Z,135.23
2022-12-22T00:04:41.335Z,140.85
2022-12-22T00:07:27.053Z,138.82
2022-12-22T00:10:14.196Z,148.50
2022-12-22T00:13:00.128Z,155.07
2022-12-22T00:15:50.044Z,160.55
2022-12-22T00:18:35.950Z,154.52
2022-12-22T00:21:21.814Z,140.50
2022-12-22T00:24:07.888Z,141.40
2022-12-22T00:26:55.380Z,144.27
2022-12-22T00:29:41.166Z,129.15
2022-12-22T00:32:32.788Z,140.68
2022-12-22T00:35:19.547Z,156.77
2022-12-22T00:38:05.119Z,127.78
2022-12-22T00:40:51.031Z,130.32
2022-12-22T00:43:38.133Z,146.45
2022-12-22T00:46:24.015Z,142.95
2022-12-22T00:49:09.922Z,138.32
2022-12-22T00:51:55.700Z,168.00
2022-12-22T00:54:41.942Z,177.32
2022-12-22T00:57:34.022Z,154.13
2022-12-22T01:00:22.129Z,153.55
2022-12-22T01:03:07.929Z,153.95
2022-12-22T01:05:54.005Z,144.20
2022-12-22T01:08:39.859Z,169.65
2022-12-22T01:11:26.709Z,159.70
2022-12-22T01:14:12.630Z,146.80
2022-12-22T01:17:00.053Z,142.32
2022-12-22T01:19:45.914Z,139.05
2022-12-22T01:22:34.350Z,139.73
2022-12-22T01:25:19.975Z,133.13
2022-12-22T01:28:05.413Z,112.25
2022-12-22T01:30:51.170Z,125.75
2022-12-22T01:33:38.439Z,115.80
2022-12-22T01:36:24.283Z,105.03
2022-12-22T01:39:10.027Z,116.40
2022-12-22T01:41:55.837Z,109.93
2022-12-22T01:44:41.793Z,111.35
2022-12-22T01:47:50.570Z,124.88
2022-12-22T01:50:43.008Z,129.25
2022-12-22T01:53:33.983Z,130.60
2022-12-22T01:56:20.473Z,125.20
2022-12-22T01:59:10.245Z,123.07
2022-12-22T02:01:56.645Z,121.88
2022-12-22T02:04:47.828Z,137.38
2022-12-22T02:07:54.683Z,140.68
2022-12-22T02:10:58.343Z,141.98
2022-12-22T02:13:52.312Z,133.65
2022-12-22T02:16:44.493Z,132.13
2022-12-22T02:19:44.090Z,115.43
2022-12-22T02:22:38.200Z,91.25
2022-12-22T02:25:33.912Z,67.93
2022-12-22T02:28:22.424Z,69.80
2022-12-22T02:31:10.237Z,68.80
2022-12-22T02:33:55.960Z,65.47
2022-12-22T02:36:53.042Z,64.63
2022-12-22T02:39:48.596Z,75.97
2022-12-22T02:42:42.678Z,67.50
2022-12-22T02:45:38.556Z,65.35
2022-12-22T02:48:28.564Z,57.90
2022-12-22T02:51:24.022Z,64.30
2022-12-22T02:54:11.204Z,55.28
2022-12-22T02:56:59.462Z,65.80
2022-12-22T02:59:45.027Z,56.70
2022-12-22T03:02:33.037Z,60.95
2022-12-22T03:05:18.689Z,56.40
2022-12-22T03:08:08.224Z,60.53
2022-12-22T03:10:54.592Z,58.22
2022-12-22T03:13:40.300Z,57.03
2022-12-22T03:16:26.216Z,59.83
2022-12-22T03:19:13.355Z,59.90
2022-12-22T03:21:58.826Z,58.40
2022-12-22T03:24:44.897Z,55.03
2022-12-22T03:27:13.028Z,52.85
2022-12-22T03:29:41.272Z,58.25
2022-12-22T03:32:09.449Z,53.85
2022-12-22T03:34:39.044Z,49.80
2022-12-22T03:37:07.229Z,51.67
2022-12-22T03:39:35.486Z,60.17
2022-12-22T03:42:20.992Z,52.22
2022-12-22T03:45:08.717Z,59.42
2022-12-22T03:47:36.879Z,51.38
2022-12-22T03:50:07.568Z,52.55
2022-12-22T03:52:35.825Z,48.67
2022-12-22T03:55:04.073Z,66.07
2022-12-22T03:57:32.209Z,45.65
2022-12-22T04:00:00.629Z,52.53
2022-12-22T04:02:28.927Z,53.92
2022-12-22T04:04:57.397Z,43.78
2022-12-22T04:07:26.952Z,46.40
2022-12-22T04:10:12.679Z,40.22
2022-12-22T04:12:56.171Z,41.88
2022-12-22T04:15:25.861Z,42.03
2022-12-22T04:17:54.187Z,45.70
2022-12-22T04:20:26.807Z,42.25
2022-12-22T04:22:57.364Z,48.03
2022-12-22T04:25:27.181Z,46.90
2022-12-22T04:27:55.814Z,47.03
2022-12-22T04:30:24.188Z,47.47
2022-12-22T04:32:52.374Z,45.50
2022-12-22T04:35:20.728Z,45.78
2022-12-22T04:37:48.925Z,44.25
2022-12-22T04:40:18.677Z,49.13
2022-12-22T04:42:46.958Z,45.70
2022-12-22T04:45:15.231Z,48.28
2022-12-22T04:47:43.591Z,51.17
2022-12-22T04:50:12.447Z,59.22
2022-12-22T04:52:40.672Z,62.08
2022-12-22T04:55:09.767Z,55.22
2022-12-22T04:57:41.085Z,57.88
2022-12-22T05:00:10.719Z,60.95
2022-12-22T05:02:39.232Z,59.30
2022-12-22T05:05:08.677Z,63.78
2022-12-22T05:07:37.201Z,72.70
2022-12-22T05:10:06.214Z,63.85
2022-12-22T05:12:51.600Z,64.80
2022-12-22T05:15:21.336Z,77.10
2022-12-22T05:17:49.682Z,66.95
2022-12-22T05:20:18.371Z,61.83
2022-12-22T05:22:47.574Z,58.95
2022-12-22T05:25:17.620Z,56.25
2022-12-22T05:27:46.183Z,58.40
2022-12-22T05:30:16.124Z,54.28
2022-12-22T05:32:45.838Z,61.55
2022-12-22T05:35:14.452Z,58.55
2022-12-22T05:37:42.846Z,51.83
2022-12-22T05:40:13.071Z,58.30
2022-12-22T05:42:41.300Z,57.67
2022-12-22T05:45:15.092Z,60.33
2022-12-22T05:47:45.740Z,52.63
2022-12-22T05:50:15.824Z,60.08
2022-12-22T05:52:45.345Z,53.75
2022-12-22T05:55:14.472Z,48.95
2022-12-22T05:57:43.579Z,54.28
2022-12-22T06:00:14.401Z,57.88
2022-12-22T06:02:44.349Z,53.38
2022-12-22T06:05:15.601Z,61.10
2022-12-22T06:07:43.880Z,56.25
2022-12-22T06:10:13.262Z,66.20
2022-12-22T06:12:42.165Z,65.90
2022-12-22T06:15:12.562Z,58.35
2022-12-22T06:17:44.752Z,68.85
2022-12-22T06:20:15.650Z,70.25
2022-12-22T06:22:44.151Z,64.65
2022-12-22T06:25:18.156Z,86.70
2022-12-22T06:27:47.721Z,75.85
2022-12-22T06:30:16.770Z,78.15
2022-12-22T06:32:45.056Z,77.93
2022-12-22T06:35:14.745Z,66.97
2022-12-22T06:37:43.034Z,72.20
2022-12-22T06:40:12.259Z,81.65
2022-12-22T06:43:02.339Z,74.40
2022-12-22T06:45:34.334Z,71.53
2022-12-22T06:48:02.977Z,69.32
2022-12-22T06:50:32.760Z,65.45
2022-12-22T06:53:01.304Z,74.47
2022-12-22T06:55:29.505Z,75.20
2022-12-22T06:57:57.728Z,84.28
2022-12-22T07:00:26.186Z,85.72
2022-12-22T07:02:54.664Z,83.22
2022-12-22T07:05:23.913Z,87.28
2022-12-22T07:07:53.788Z,81.18
2022-12-22T07:10:42.664Z,92.18
2022-12-22T07:13:20.671Z,77.53
2022-12-22T07:15:55.437Z,94.75
2022-12-22T07:18:28.382Z,96.40
2022-12-22T07:20:56.539Z,95.40
2022-12-22T07:23:26.947Z,103.28
2022-12-22T07:25:55.310Z,96.43
2022-12-22T07:28:23.582Z,92.07
2022-12-22T07:30:52.571Z,89.28
2022-12-22T07:33:21.149Z,100.63
2022-12-22T07:35:49.417Z,100.15
2022-12-22T07:38:17.690Z,96.20
2022-12-22T07:40:51.887Z,99.20
2022-12-22T07:43:19.819Z,105.97
2022-12-22T07:45:48.419Z,106.15
2022-12-22T07:48:34.394Z,119.55
2022-12-22T07:51:05.081Z,123.70
2022-12-22T07:53:33.910Z,120.57
2022-12-22T07:56:06.295Z,123.18
2022-12-22T07:58:34.963Z,122.95
2022-12-22T08:01:03.156Z,107.60
2022-12-22T08:03:31.359Z,115.50
2022-12-22T08:05:59.744Z,100.10
2022-12-22T08:08:28.002Z,114.70
2022-12-22T08:10:56.189Z,95.57
2022-12-22T08:13:25.963Z,100.95
2022-12-22T08:15:54.246Z,95.47
2022-12-22T08:18:22.606Z,91.47
2022-12-22T08:20:51.810Z,102.80
2022-12-22T08:23:20.180Z,97.25
2022-12-22T08:25:53.272Z,100.80
2022-12-22T08:28:21.782Z,109.03
2022-12-22T08:30:51.353Z,90.72
2022-12-22T08:33:19.608Z,100.00
2022-12-22T08:35:47.886Z,94.35
2022-12-22T08:38:16.300Z,90.13
2022-12-22T08:40:46.178Z,98.80
2022-12-22T08:43:14.769Z,85.55
2022-12-22T08:45:43.684Z,101.95
2022-12-22T08:48:13.290Z,85.32
2022-12-22T08:50:41.919Z,89.10
2022-12-22T08:53:23.744Z,99.65
2022-12-22T08:55:58.880Z,112.40
2022-12-22T08:58:27.089Z,90.32
2022-12-22T09:00:55.276Z,102.80
2022-12-22T09:03:24.961Z,97.88
2022-12-22T09:05:53.251Z,98.68
2022-12-22T09:08:21.486Z,105.05
2022-12-22T09:10:49.608Z,96.53
2022-12-22T09:13:17.936Z,95.07
2022-12-22T09:15:46.214Z,102.93
2022-12-22T09:18:14.427Z,94.60
2022-12-22T09:20:44.051Z,95.38
2022-12-22T09:23:12.337Z,98.30
2022-12-22T09:25:40.585Z,98.50
2022-12-22T09:28:09.049Z,92.32
2022-12-22T09:30:37.520Z,96.03
2022-12-22T09:33:05.913Z,97.88
2022-12-22T09:35:34.196Z,96.68
2022-12-22T09:38:04.391Z,92.65
2022-12-22T09:40:33.314Z,101.88
2022-12-22T09:43:01.668Z,93.72
2022-12-22T09:45:29.979Z,103.43
2022-12-22T09:47:58.518Z,88.25
2022-12-22T09:50:28.735Z,90.60
2022-12-22T09:53:00.166Z,85.32
2022-12-22T09:55:40.584Z,81.90
2022-12-22T09:58:25.724Z,94.80
2022-12-22T10:01:02.204Z,89.53
2022-12-22T10:03:42.250Z,89.90
2022-12-22T10:06:15.534Z,88.40
2022-12-22T10:08:44.235Z,91.53
2022-12-22T10:11:17.623Z,82.82
2022-12-22T10:13:47.042Z,88.43
2022-12-22T10:16:21.675Z,91.78
2022-12-22T10:18:58.643Z,81.28
2022-12-22T10:21:27.133Z,84.97
2022-12-22T10:23:55.572Z,86.63
2022-12-22T10:26:29.198Z,89.60
2022-12-22T10:29:02.293Z,91.00
2022-12-22T10:31:32.162Z,91.20
2022-12-22T10:34:14.193Z,91.63
2022-12-22T10:36:47.743Z,86.78
2022-12-22T10:39:22.505Z,92.50
2022-12-22T10:41:55.739Z,89.30
2022-12-22T10:44:27.263Z,84.63
2022-12-22T10:46:56.781Z,81.70
2022-12-22T10:49:27.826Z,85.40
2022-12-22T10:51:58.301Z,84.50
2022-12-22T10:54:30.513Z,80.40
2022-12-22T10:57:08.559Z,81.68
2022-12-22T10:59:50.250Z,82.22
2022-12-22T11:02:27.439Z,83.70
2022-12-22T11:05:01.664Z,80.70
2022-12-22T11:07:33.185Z,84.95
2022-12-22T11:10:01.536Z,75.03
2022-12-22T11:12:41.022Z,85.32
2022-12-22T11:15:24.052Z,80.25
2022-12-22T11:18:02.929Z,82.07
2022-12-22T11:20:47.152Z,78.95
2022-12-22T11:23:23.784Z,78.72
2022-12-22T11:26:02.793Z,87.43
2022-12-22T11:28:48.303Z,82.33
2022-12-22T11:31:28.861Z,83.82
2022-12-22T11:34:08.061Z,83.35
2022-12-22T11:36:49.764Z,80.90
2022-12-22T11:39:24.732Z,86.50
2022-12-22T11:42:04.133Z,86.63
2022-12-22T11:44:41.214Z,72.83
2022-12-22T11:47:20.988Z,78.60
2022-12-22T11:51:02.092Z,87.57
2022-12-22T11:53:28.469Z,81.80
2022-12-22T11:56:17.367Z,82.82
2022-12-22T11:59:02.179Z,85.20
2022-12-22T12:01:50.795Z,80.53
2022-12-22T12:04:49.245Z,78.45
2022-12-22T12:07:26.410Z,75.72
2022-12-22T12:10:07.417Z,78.45
2022-12-22T12:12:45.796Z,75.45
2022-12-22T12:15:25.563Z,81.47
2022-12-22T12:18:13.842Z,76.72
2022-12-22T12:20:50.008Z,72.53
2022-12-22T12:23:59.751Z,77.30
2022-12-22T12:26:32.362Z,77.45
2022-12-22T12:29:14.893Z,83.93
2022-12-22T12:31:50.101Z,74.77
2022-12-22T12:34:21.807Z,75.87
2022-12-22T12:36:54.756Z,76.30
2022-12-22T12:39:30.678Z,77.80
2022-12-22T12:42:05.676Z,79.17
2022-12-22T12:44:37.360Z,77.93
2022-12-22T12:47:31.389Z,73.17
2022-12-22T12:50:29.273Z,80.63
2022-12-22T12:53:16.903Z,81.93
2022-12-22T12:56:09.909Z,77.57
2022-12-22T12:58:58.300Z,81.67
2022-12-22T13:01:58.317Z,87.47
2022-12-22T13:05:10.610Z,80.67
2022-12-22T13:08:21.566Z,78.43
2022-12-22T13:11:44.851Z,81.40
2022-12-22T13:14:10.441Z,74.50
2022-12-22T13:16:40.789Z,75.65
2022-12-22T13:19:21.334Z,79.87
2022-12-22T13:21:53.449Z,70.40
2022-12-22T13:24:29.838Z,71.33
2022-12-22T13:27:06.960Z,71.18
2022-12-22T13:29:45.811Z,76.43
2022-12-22T13:32:24.100Z,74.22
2022-12-22T13:35:29.730Z,75.53
2022-12-22T13:37:54.741Z,73.28
2022-12-22T13:40:25.401Z,85.85
2022-12-22T13:42:58.851Z,71.53
2022-12-22T13:45:37.514Z,81.45
2022-12-22T13:48:13.903Z,81.65
2022-12-22T13:50:46.330Z,69.45
2022-12-22T13:53:58.193Z,76.88
2022-12-22T13:56:15.076Z,76.53
2022-12-22T13:58:46.642Z,72.47
2022-12-22T14:01:18.220Z,75.85
2022-12-22T14:04:01.806Z,66.65
2022-12-22T14:06:33.534Z,71.90
2022-12-22T14:09:16.931Z,72.55
2022-12-22T14:11:52.116Z,71.10
2022-12-22T14:14:25.208Z,80.35
2022-12-22T14:16:57.014Z,65.80
2022-12-22T14:19:26.711Z,64.70
2022-12-22T14:22:05.805Z,74.45
2022-12-22T14:24:39.021Z,62.88
2022-12-22T14:27:13.646Z,66.60
2022-12-22T14:29:43.405Z,67.07
2022-12-22T14:32:13.843Z,72.22
2022-12-22T14:34:42.979Z,75.35
2022-12-22T14:37:11.688Z,64.50
2022-12-22T14:39:39.866Z,69.57
2022-12-22T14:42:14.888Z,67.97
2022-12-22T14:44:47.225Z,66.72
2022-12-22T14:47:18.918Z,68.00
2022-12-22T14:49:50.557Z,64.78
2022-12-22T14:52:35.851Z,62.20
2022-12-22T14:55:05.519Z,59.05
2022-12-22T14:57:37.769Z,59.53
2022-12-22T15:00:10.751Z,67.57
2022-12-22T15:02:41.068Z,66.00
2022-12-22T15:05:17.308Z,62.03
2022-12-22T15:08:05.896Z,70.72
2022-12-22T15:10:41.320Z,66.93
2022-12-22T15:13:15.954Z,61.15
2022-12-22T15:15:45.580Z,63.20
2022-12-22T15:18:16.094Z,63.80
2022-12-22T15:20:44.394Z,73.82
2022-12-22T15:23:17.414Z,74.68
2022-12-22T15:25:46.251Z,81.88
2022-12-22T15:28:14.736Z,78.63
2022-12-22T15:30:43.771Z,79.47
2022-12-22T15:33:16.215Z,68.38
2022-12-22T15:35:45.700Z,86.00
2022-12-22T15:38:15.958Z,71.13
2022-12-22T15:40:44.492Z,72.90
2022-12-22T15:43:53.501Z,71.65
2022-12-22T15:46:03.511Z,62.20
2022-12-22T15:48:35.732Z,67.00
2022-12-22T15:51:06.876Z,69.03
2022-12-22T15:53:35.960Z,73.28
2022-12-22T15:56:04.511Z,67.05
2022-12-22T15:58:36.613Z,68.65
2022-12-22T16:01:05.316Z,68.60
2022-12-22T16:03:35.208Z,71.55
2022-12-22T16:06:03.605Z,74.57
2022-12-22T16:08:34.310Z,70.80
2022-12-22T16:11:02.582Z,72.85
2022-12-22T16:13:31.005Z,64.25
2022-12-22T16:15:59.904Z,69.72
2022-12-22T16:18:28.206Z,97.95
2022-12-22T16:21:04.597Z,120.32
2022-12-22T16:23:32.837Z,134.80
2022-12-22T16:26:02.448Z,141.77
2022-12-22T16:28:31.108Z,152.32
2022-12-22T16:31:00.425Z,125.13
2022-12-22T16:33:29.041Z,265.48
2022-12-22T16:36:00.049Z,156.73
2022-12-22T16:38:28.282Z,132.98
2022-12-22T16:40:56.626Z,131.15
2022-12-22T16:43:48.949Z,123.15
2022-12-22T16:46:19.742Z,123.35
2022-12-22T16:48:50.758Z,147.05
2022-12-22T16:51:25.366Z,144.10
2022-12-22T16:53:54.200Z,146.80
2022-12-22T16:56:24.917Z,142.27
2022-12-22T16:58:53.204Z,161.65
2022-12-22T17:01:38.361Z,191.23
2022-12-22T17:04:10.800Z,198.98
2022-12-22T17:06:41.184Z,229.60
2022-12-22T17:09:17.033Z,179.23
2022-12-22T17:11:46.438Z,180.55
2022-12-22T17:14:25.219Z,194.10
2022-12-22T17:16:54.536Z,188.48
2022-12-22T17:19:23.006Z,198.73
2022-12-22T17:21:54.413Z,170.15
2022-12-22T17:24:28.037Z,173.88
2022-12-22T17:26:59.948Z,149.63
2022-12-22T17:29:28.189Z,153.88
2022-12-22T17:31:57.072Z,130.88
2022-12-22T17:34:25.567Z,132.23
2022-12-22T17:36:56.823Z,129.80
2022-12-22T17:39:25.649Z,156.40
2022-12-22T17:41:57.319Z,156.57
2022-12-22T17:44:28.323Z,155.82
2022-12-22T17:46:56.680Z,182.15
2022-12-22T17:49:24.947Z,188.27
2022-12-22T17:51:54.478Z,197.27
2022-12-22T17:54:25.473Z,196.25
2022-12-22T17:56:59.565Z,244.00
2022-12-22T17:59:28.174Z,277.10
2022-12-22T18:01:56.552Z,201.13
2022-12-22T18:04:25.018Z,156.45
2022-12-22T18:06:56.010Z,141.57
2022-12-22T18:09:27.315Z,162.15
2022-12-22T18:11:55.644Z,170.02
2022-12-22T18:14:24.322Z,153.45
2022-12-22T18:16:52.656Z,151.30
2022-12-22T18:19:20.976Z,154.68
2022-12-22T18:21:49.672Z,130.98
2022-12-22T18:24:20.569Z,134.70
2022-12-22T18:26:48.843Z,139.10
2022-12-22T18:29:17.614Z,113.65
2022-12-22T18:31:46.036Z,100.10
2022-12-22T18:34:14.480Z,106.75
2022-12-22T18:36:45.594Z,104.55
2022-12-22T18:39:18.979Z,95.55
2022-12-22T18:41:49.167Z,105.80
2022-12-22T18:44:18.171Z,110.38
2022-12-22T18:46:47.031Z,96.47
2022-12-22T18:49:15.645Z,95.47
2022-12-22T18:51:44.829Z,94.82
2022-12-22T18:54:23.423Z,98.47
2022-12-22T18:56:53.641Z,105.88
2022-12-22T18:59:29.333Z,100.25
2022-12-22T19:02:05.163Z,107.43
2022-12-22T19:04:33.519Z,103.20
2022-12-22T19:07:01.685Z,124.20
2022-12-22T19:09:29.940Z,128.27
2022-12-22T19:11:59.574Z,115.55
2022-12-22T19:14:27.976Z,106.45
2022-12-22T19:16:56.209Z,100.70
2022-12-22T19:19:24.465Z,106.93
2022-12-22T19:21:53.742Z,111.85
2022-12-22T19:24:21.949Z,99.47
2022-12-22T19:26:50.234Z,105.10
2022-12-22T19:29:19.933Z,107.25
2022-12-22T19:31:48.344Z,107.97
2022-12-22T19:34:19.691Z,116.97
2022-12-22T19:36:48.172Z,118.30
2022-12-22T19:39:16.843Z,116.75
2022-12-22T19:41:47.894Z,114.18
2022-12-22T19:44:24.392Z,118.75
2022-12-22T19:46:54.160Z,123.85
2022-12-22T19:49:24.594Z,119.72
2022-12-22T19:51:52.839Z,112.85
2022-12-22T19:54:21.250Z,122.88
2022-12-22T19:56:52.418Z,117.45
2022-12-22T19:59:38.758Z,104.88
2022-12-22T20:02:25.343Z,104.22
2022-12-22T20:04:54.270Z,107.55
2022-12-22T20:07:24.723Z,118.93
2022-12-22T20:09:53.392Z,123.03
2022-12-22T20:12:26.338Z,113.32
2022-12-22T20:14:56.115Z,116.63
2022-12-22T20:17:24.346Z,113.07
2022-12-22T20:19:52.559Z,104.72
2022-12-22T20:22:24.307Z,105.45
2022-12-22T20:24:54.540Z,107.80
2022-12-22T20:27:25.491Z,99.10
2022-12-22T20:29:55.045Z,108.20
2022-12-22T20:32:27.867Z,105.45
2022-12-22T20:34:56.702Z,118.00
2022-12-22T20:37:25.256Z,119.80
2022-12-22T20:39:53.428Z,129.48
2022-12-22T20:42:24.961Z,131.20
2022-12-22T20:45:02.747Z,127.95
2022-12-22T20:47:34.788Z,122.50
2022-12-22T20:50:03.104Z,132.35
2022-12-22T20:52:31.408Z,139.15
2022-12-22T20:54:59.571Z,143.45
2022-12-22T20:57:28.648Z,140.38
2022-12-22T20:59:57.058Z,134.68
2022-12-22T21:02:28.221Z,127.95
2022-12-22T21:04:58.227Z,148.45
2022-12-22T21:07:26.502Z,137.10
2022-12-22T21:09:54.755Z,131.75
2022-12-22T21:12:23.017Z,147.45
2022-12-22T21:14:52.000Z,142.18
2022-12-22T21:17:20.829Z,149.48
2022-12-22T21:19:49.782Z,139.50
2022-12-22T21:22:19.431Z,135.13
2022-12-22T21:24:47.750Z,142.27
2022-12-22T21:27:20.117Z,131.55
2022-12-22T21:29:49.019Z,129.45
2022-12-22T21:32:17.517Z,142.43
2022-12-22T21:34:45.771Z,135.63
2022-12-22T21:37:19.859Z,123.50
2022-12-22T21:39:49.749Z,119.30
2022-12-22T21:42:18.750Z,132.65
2022-12-22T21:44:47.143Z,130.57
2022-12-22T21:47:19.771Z,125.30
2022-12-22T21:49:48.318Z,120.13
2022-12-22T21:52:16.510Z,128.43
2022-12-22T21:54:44.720Z,120.15
2022-12-22T21:57:16.134Z,139.23
2022-12-22T21:59:44.535Z,121.38
2022-12-22T22:02:17.462Z,126.05
2022-12-22T22:04:52.081Z,126.65
2022-12-22T22:07:22.997Z,117.70
2022-12-22T22:09:51.230Z,110.45
2022-12-22T22:12:37.055Z,108.28
2022-12-22T22:15:06.875Z,120.72
2022-12-22T22:17:35.409Z,113.90
2022-12-22T22:20:03.664Z,118.70
2022-12-22T22:22:31.931Z,123.35
2022-12-22T22:25:00.179Z,124.28
2022-12-22T22:27:29.758Z,117.38
2022-12-22T22:29:57.953Z,130.15
2022-12-22T22:32:26.133Z,129.85
2022-12-22T22:34:54.332Z,126.22
2022-12-22T22:37:22.604Z,122.43
2022-12-22T22:39:51.111Z,120.18
2022-12-22T22:42:19.314Z,127.70
2022-12-22T22:44:49.226Z,130.82
2022-12-22T22:47:17.737Z,131.32
2022-12-22T22:49:46.042Z,129.88
2022-12-22T22:52:14.369Z,140.48
2022-12-22T22:54:42.890Z,147.82
2022-12-22T22:57:11.102Z,149.40
2022-12-22T22:59:39.429Z,160.55
2022-12-22T23:02:10.780Z,148.77
2022-12-22T23:04:39.225Z,147.50
2022-12-22T23:07:07.407Z,143.90
2022-12-22T23:09:35.876Z,150.13
2022-12-22T23:12:04.211Z,147.60
2022-12-22T23:14:32.663Z,142.32
2022-12-22T23:17:00.965Z,146.85
2022-12-22T23:19:30.543Z,151.38
2022-12-22T23:21:58.881Z,148.50
2022-12-22T23:24:27.144Z,147.95
2022-12-22T23:26:55.366Z,140.23
2022-12-22T23:29:23.679Z,148.05
2022-12-22T23:31:51.968Z,140.63
2022-12-22T23:34:20.377Z,145.50
2022-12-22T23:36:49.955Z,139.73
2022-12-22T23:39:18.260Z,142.02
2022-12-22T23:41:46.415Z,137.02
2022-12-22T23:44:14.815Z,145.52
2022-12-22T23:46:42.989Z,132.73
2022-12-22T23:49:12.867Z,148.13
2022-12-22T23:51:41.566Z,144.77
2022-12-22T23:54:11.372Z,151.43
2022-12-22T23:56:39.692Z,148.40
2022-12-22T23:59:07.997Z,150.23
